sensor_id;sensor_type;location;lat;lon;timestamp;P1;durP1;ratioP1;P2;durP2;ratioP2
5060;SDS011;2549;52.128;21.068;2023-03-19T00:00:26;25.45;;;10.38;;
5060;SDS011;2549;52.128;21.068;2023-03-19T00:02:53;28.73;;;10.45;;
5060;SDS011;2549;52.128;21.068;2023-03-19T00:05:20;18.58;;;9.75;;
5060;SDS011;2549;52.128;21.068;2023-03-19T00:07:47;23.75;;;10.32;;
5060;SDS011;2549;52.128;21.068;2023-03-19T00:10:13;23.27;;;12.02;;
5060;SDS011;2549;52.128;21.068;2023-03-19T00:12:40;21.58;;;10.27;;
5060;SDS011;2549;52.128;21.068;2023-03-19T00:15:07;26.95;;;10.85;;
5060;SDS011;2549;52.128;21.068;2023-03-19T00:17:39;19.02;;;10.00;;
5060;SDS011;2549;52.128;21.068;2023-03-19T00:20:10;24.17;;;10.20;;
5060;SDS011;2549;52.128;21.068;2023-03-19T00:22:38;26.05;;;11.27;;
5060;SDS011;2549;52.128;21.068;2023-03-19T00:25:06;20.23;;;9.75;;
5060;SDS011;2549;52.128;21.068;2023-03-19T00:27:34;18.92;;;9.20;;
5060;SDS011;2549;52.128;21.068;2023-03-19T00:30:03;21.60;;;10.18;;
5060;SDS011;2549;52.128;21.068;2023-03-19T00:32:31;24.10;;;10.75;;
5060;SDS011;2549;52.128;21.068;2023-03-19T00:34:59;25.65;;;10.38;;
5060;SDS011;2549;52.128;21.068;2023-03-19T00:37:26;23.10;;;10.85;;
5060;SDS011;2549;52.128;21.068;2023-03-19T00:39:53;23.65;;;9.52;;
5060;SDS011;2549;52.128;21.068;2023-03-19T00:42:21;19.42;;;10.02;;
5060;SDS011;2549;52.128;21.068;2023-03-19T00:44:48;21.15;;;10.43;;
5060;SDS011;2549;52.128;21.068;2023-03-19T00:47:15;26.15;;;11.02;;
5060;SDS011;2549;52.128;21.068;2023-03-19T00:49:42;29.15;;;11.32;;
5060;SDS011;2549;52.128;21.068;2023-03-19T00:52:09;19.13;;;10.45;;
5060;SDS011;2549;52.128;21.068;2023-03-19T00:54:36;22.85;;;10.55;;
5060;SDS011;2549;52.128;21.068;2023-03-19T00:57:03;22.92;;;11.05;;
5060;SDS011;2549;52.128;21.068;2023-03-19T00:59:29;19.63;;;9.23;;
5060;SDS011;2549;52.128;21.068;2023-03-19T01:01:56;20.83;;;10.18;;
5060;SDS011;2549;52.128;21.068;2023-03-19T01:04:23;23.30;;;11.18;;
5060;SDS011;2549;52.128;21.068;2023-03-19T01:06:50;20.58;;;9.70;;
5060;SDS011;2549;52.128;21.068;2023-03-19T01:09:17;24.63;;;9.90;;
5060;SDS011;2549;52.128;21.068;2023-03-19T01:11:44;23.77;;;10.45;;
5060;SDS011;2549;52.128;21.068;2023-03-19T01:14:11;26.90;;;11.88;;
5060;SDS011;2549;52.128;21.068;2023-03-19T01:16:38;20.90;;;10.55;;
5060;SDS011;2549;52.128;21.068;2023-03-19T01:19:05;25.08;;;10.50;;
5060;SDS011;2549;52.128;21.068;2023-03-19T01:21:32;20.83;;;10.48;;
5060;SDS011;2549;52.128;21.068;2023-03-19T01:24:00;24.17;;;10.90;;
5060;SDS011;2549;52.128;21.068;2023-03-19T01:26:27;26.60;;;11.02;;
5060;SDS011;2549;52.128;21.068;2023-03-19T01:28:54;22.60;;;10.75;;
5060;SDS011;2549;52.128;21.068;2023-03-19T01:31:22;22.00;;;10.23;;
5060;SDS011;2549;52.128;21.068;2023-03-19T01:33:49;19.85;;;9.82;;
5060;SDS011;2549;52.128;21.068;2023-03-19T01:36:16;19.98;;;9.68;;
5060;SDS011;2549;52.128;21.068;2023-03-19T01:38:43;18.83;;;9.00;;
5060;SDS011;2549;52.128;21.068;2023-03-19T01:41:10;25.65;;;10.65;;
5060;SDS011;2549;52.128;21.068;2023-03-19T01:43:37;19.95;;;9.98;;
5060;SDS011;2549;52.128;21.068;2023-03-19T01:46:05;22.75;;;9.80;;
5060;SDS011;2549;52.128;21.068;2023-03-19T01:48:38;30.25;;;10.48;;
5060;SDS011;2549;52.128;21.068;2023-03-19T01:51:12;26.27;;;10.90;;
5060;SDS011;2549;52.128;21.068;2023-03-19T01:53:42;23.02;;;10.38;;
5060;SDS011;2549;52.128;21.068;2023-03-19T01:56:21;24.85;;;11.60;;
5060;SDS011;2549;52.128;21.068;2023-03-19T01:58:56;22.95;;;11.00;;
5060;SDS011;2549;52.128;21.068;2023-03-19T02:01:26;20.80;;;10.23;;
5060;SDS011;2549;52.128;21.068;2023-03-19T02:03:54;24.77;;;10.15;;
5060;SDS011;2549;52.128;21.068;2023-03-19T02:06:22;33.35;;;10.95;;
5060;SDS011;2549;52.128;21.068;2023-03-19T02:08:49;22.58;;;10.57;;
5060;SDS011;2549;52.128;21.068;2023-03-19T02:11:17;25.83;;;10.40;;
5060;SDS011;2549;52.128;21.068;2023-03-19T02:13:45;22.23;;;10.32;;
5060;SDS011;2549;52.128;21.068;2023-03-19T02:16:13;22.75;;;10.40;;
5060;SDS011;2549;52.128;21.068;2023-03-19T02:18:41;24.98;;;11.45;;
5060;SDS011;2549;52.128;21.068;2023-03-19T02:21:09;26.60;;;9.98;;
5060;SDS011;2549;52.128;21.068;2023-03-19T02:23:46;23.55;;;10.27;;
5060;SDS011;2549;52.128;21.068;2023-03-19T02:26:34;25.23;;;10.50;;
5060;SDS011;2549;52.128;21.068;2023-03-19T02:29:02;26.13;;;10.30;;
5060;SDS011;2549;52.128;21.068;2023-03-19T02:31:29;18.02;;;9.45;;
5060;SDS011;2549;52.128;21.068;2023-03-19T02:34:06;23.33;;;10.27;;
5060;SDS011;2549;52.128;21.068;2023-03-19T02:36:48;19.50;;;10.85;;
5060;SDS011;2549;52.128;21.068;2023-03-19T02:39:20;21.92;;;10.32;;
5060;SDS011;2549;52.128;21.068;2023-03-19T02:41:53;25.10;;;11.15;;
5060;SDS011;2549;52.128;21.068;2023-03-19T02:44:21;29.42;;;10.73;;
5060;SDS011;2549;52.128;21.068;2023-03-19T02:46:48;24.55;;;10.15;;
5060;SDS011;2549;52.128;21.068;2023-03-19T02:49:15;26.80;;;10.43;;
5060;SDS011;2549;52.128;21.068;2023-03-19T02:51:42;23.55;;;10.45;;
5060;SDS011;2549;52.128;21.068;2023-03-19T02:54:08;21.33;;;11.05;;
5060;SDS011;2549;52.128;21.068;2023-03-19T02:56:35;20.63;;;10.60;;
5060;SDS011;2549;52.128;21.068;2023-03-19T02:59:02;23.88;;;11.15;;
5060;SDS011;2549;52.128;21.068;2023-03-19T03:01:29;18.70;;;10.75;;
5060;SDS011;2549;52.128;21.068;2023-03-19T03:03:56;24.80;;;10.38;;
5060;SDS011;2549;52.128;21.068;2023-03-19T03:06:23;17.90;;;9.45;;
5060;SDS011;2549;52.128;21.068;2023-03-19T03:08:49;27.20;;;9.85;;
5060;SDS011;2549;52.128;21.068;2023-03-19T03:11:17;24.85;;;10.45;;
5060;SDS011;2549;52.128;21.068;2023-03-19T03:13:44;21.52;;;9.25;;
5060;SDS011;2549;52.128;21.068;2023-03-19T03:16:11;23.98;;;11.07;;
5060;SDS011;2549;52.128;21.068;2023-03-19T03:18:38;19.95;;;9.77;;
5060;SDS011;2549;52.128;21.068;2023-03-19T03:21:04;25.73;;;9.43;;
5060;SDS011;2549;52.128;21.068;2023-03-19T03:23:31;19.92;;;9.15;;
5060;SDS011;2549;52.128;21.068;2023-03-19T03:25:58;20.50;;;10.43;;
5060;SDS011;2549;52.128;21.068;2023-03-19T03:28:25;20.80;;;9.60;;
5060;SDS011;2549;52.128;21.068;2023-03-19T03:30:56;24.33;;;9.50;;
5060;SDS011;2549;52.128;21.068;2023-03-19T03:33:24;21.42;;;10.65;;
5060;SDS011;2549;52.128;21.068;2023-03-19T03:35:51;18.25;;;10.00;;
5060;SDS011;2549;52.128;21.068;2023-03-19T03:38:18;24.67;;;10.60;;
5060;SDS011;2549;52.128;21.068;2023-03-19T03:40:48;18.67;;;9.07;;
5060;SDS011;2549;52.128;21.068;2023-03-19T03:43:16;21.02;;;10.25;;
5060;SDS011;2549;52.128;21.068;2023-03-19T03:45:44;21.73;;;9.57;;
5060;SDS011;2549;52.128;21.068;2023-03-19T03:48:11;16.77;;;8.88;;
5060;SDS011;2549;52.128;21.068;2023-03-19T03:50:39;18.10;;;9.30;;
5060;SDS011;2549;52.128;21.068;2023-03-19T03:53:06;23.00;;;9.43;;
5060;SDS011;2549;52.128;21.068;2023-03-19T03:55:34;23.05;;;10.15;;
5060;SDS011;2549;52.128;21.068;2023-03-19T03:58:02;27.13;;;8.90;;
5060;SDS011;2549;52.128;21.068;2023-03-19T04:00:29;21.63;;;9.82;;
5060;SDS011;2549;52.128;21.068;2023-03-19T04:02:56;16.23;;;8.40;;
5060;SDS011;2549;52.128;21.068;2023-03-19T04:05:24;20.20;;;9.85;;
5060;SDS011;2549;52.128;21.068;2023-03-19T04:07:51;22.65;;;10.10;;
5060;SDS011;2549;52.128;21.068;2023-03-19T04:10:18;21.20;;;9.50;;
5060;SDS011;2549;52.128;21.068;2023-03-19T04:12:45;25.15;;;9.80;;
5060;SDS011;2549;52.128;21.068;2023-03-19T04:15:11;29.23;;;10.88;;
5060;SDS011;2549;52.128;21.068;2023-03-19T04:17:38;21.33;;;9.68;;
5060;SDS011;2549;52.128;21.068;2023-03-19T04:20:05;23.42;;;9.85;;
5060;SDS011;2549;52.128;21.068;2023-03-19T04:22:33;25.60;;;9.80;;
5060;SDS011;2549;52.128;21.068;2023-03-19T04:24:59;22.42;;;10.13;;
5060;SDS011;2549;52.128;21.068;2023-03-19T04:27:27;18.90;;;9.05;;
5060;SDS011;2549;52.128;21.068;2023-03-19T04:29:54;19.15;;;8.88;;
5060;SDS011;2549;52.128;21.068;2023-03-19T04:32:20;15.80;;;8.32;;
5060;SDS011;2549;52.128;21.068;2023-03-19T04:34:47;21.23;;;10.52;;
5060;SDS011;2549;52.128;21.068;2023-03-19T04:37:14;18.33;;;10.10;;
5060;SDS011;2549;52.128;21.068;2023-03-19T04:39:41;19.52;;;9.57;;
5060;SDS011;2549;52.128;21.068;2023-03-19T04:42:08;19.75;;;9.23;;
5060;SDS011;2549;52.128;21.068;2023-03-19T04:44:35;26.50;;;10.60;;
5060;SDS011;2549;52.128;21.068;2023-03-19T04:47:03;19.10;;;9.52;;
5060;SDS011;2549;52.128;21.068;2023-03-19T04:49:30;17.33;;;9.57;;
5060;SDS011;2549;52.128;21.068;2023-03-19T04:51:57;17.38;;;9.05;;
5060;SDS011;2549;52.128;21.068;2023-03-19T04:54:24;18.95;;;9.77;;
5060;SDS011;2549;52.128;21.068;2023-03-19T04:56:51;19.13;;;9.60;;
5060;SDS011;2549;52.128;21.068;2023-03-19T04:59:18;20.98;;;9.60;;
5060;SDS011;2549;52.128;21.068;2023-03-19T05:01:48;20.92;;;8.85;;
5060;SDS011;2549;52.128;21.068;2023-03-19T05:04:15;21.88;;;9.52;;
5060;SDS011;2549;52.128;21.068;2023-03-19T05:06:42;21.88;;;9.10;;
5060;SDS011;2549;52.128;21.068;2023-03-19T05:09:09;17.67;;;9.38;;
5060;SDS011;2549;52.128;21.068;2023-03-19T05:11:36;20.08;;;9.40;;
5060;SDS011;2549;52.128;21.068;2023-03-19T05:14:03;22.45;;;9.93;;
5060;SDS011;2549;52.128;21.068;2023-03-19T05:16:30;22.65;;;11.02;;
5060;SDS011;2549;52.128;21.068;2023-03-19T05:18:58;27.70;;;10.90;;
5060;SDS011;2549;52.128;21.068;2023-03-19T05:21:24;28.58;;;10.48;;
5060;SDS011;2549;52.128;21.068;2023-03-19T05:23:51;23.92;;;10.10;;
5060;SDS011;2549;52.128;21.068;2023-03-19T05:26:20;25.42;;;10.38;;
5060;SDS011;2549;52.128;21.068;2023-03-19T05:28:46;26.58;;;11.20;;
5060;SDS011;2549;52.128;21.068;2023-03-19T05:31:13;22.60;;;10.70;;
5060;SDS011;2549;52.128;21.068;2023-03-19T05:33:40;19.17;;;9.40;;
5060;SDS011;2549;52.128;21.068;2023-03-19T05:36:07;24.55;;;10.88;;
5060;SDS011;2549;52.128;21.068;2023-03-19T05:38:35;23.27;;;11.95;;
5060;SDS011;2549;52.128;21.068;2023-03-19T05:41:03;23.75;;;10.68;;
5060;SDS011;2549;52.128;21.068;2023-03-19T05:43:31;27.63;;;11.60;;
5060;SDS011;2549;52.128;21.068;2023-03-19T05:45:58;24.23;;;11.25;;
5060;SDS011;2549;52.128;21.068;2023-03-19T05:48:25;21.63;;;11.13;;
5060;SDS011;2549;52.128;21.068;2023-03-19T05:50:52;24.10;;;10.63;;
5060;SDS011;2549;52.128;21.068;2023-03-19T05:53:19;22.80;;;11.70;;
5060;SDS011;2549;52.128;21.068;2023-03-19T05:55:46;22.58;;;10.43;;
5060;SDS011;2549;52.128;21.068;2023-03-19T05:58:14;30.77;;;12.30;;
5060;SDS011;2549;52.128;21.068;2023-03-19T06:00:42;24.75;;;10.52;;
5060;SDS011;2549;52.128;21.068;2023-03-19T06:03:09;22.77;;;9.80;;
5060;SDS011;2549;52.128;21.068;2023-03-19T06:05:36;25.05;;;11.63;;
5060;SDS011;2549;52.128;21.068;2023-03-19T06:08:03;24.23;;;11.63;;
5060;SDS011;2549;52.128;21.068;2023-03-19T06:10:30;24.67;;;11.65;;
5060;SDS011;2549;52.128;21.068;2023-03-19T06:12:57;22.40;;;10.45;;
5060;SDS011;2549;52.128;21.068;2023-03-19T06:15:24;29.33;;;11.95;;
5060;SDS011;2549;52.128;21.068;2023-03-19T06:17:52;26.00;;;11.82;;
5060;SDS011;2549;52.128;21.068;2023-03-19T06:20:19;24.73;;;10.27;;
5060;SDS011;2549;52.128;21.068;2023-03-19T06:22:45;24.95;;;10.98;;
5060;SDS011;2549;52.128;21.068;2023-03-19T06:25:12;23.70;;;11.48;;
5060;SDS011;2549;52.128;21.068;2023-03-19T06:27:39;23.45;;;10.52;;
5060;SDS011;2549;52.128;21.068;2023-03-19T06:30:06;29.25;;;11.40;;
5060;SDS011;2549;52.128;21.068;2023-03-19T06:32:34;20.70;;;10.43;;
5060;SDS011;2549;52.128;21.068;2023-03-19T06:35:01;20.95;;;10.85;;
5060;SDS011;2549;52.128;21.068;2023-03-19T06:37:28;20.15;;;10.43;;
5060;SDS011;2549;52.128;21.068;2023-03-19T06:39:55;26.50;;;11.88;;
5060;SDS011;2549;52.128;21.068;2023-03-19T06:42:22;23.85;;;10.93;;
5060;SDS011;2549;52.128;21.068;2023-03-19T06:44:49;23.27;;;11.18;;
5060;SDS011;2549;52.128;21.068;2023-03-19T06:47:18;23.25;;;10.75;;
5060;SDS011;2549;52.128;21.068;2023-03-19T06:49:45;23.95;;;10.68;;
5060;SDS011;2549;52.128;21.068;2023-03-19T06:52:12;26.95;;;11.80;;
5060;SDS011;2549;52.128;21.068;2023-03-19T06:54:39;23.05;;;9.95;;
5060;SDS011;2549;52.128;21.068;2023-03-19T06:57:06;20.63;;;10.05;;
5060;SDS011;2549;52.128;21.068;2023-03-19T06:59:33;21.80;;;10.20;;
5060;SDS011;2549;52.128;21.068;2023-03-19T07:02:00;23.05;;;10.70;;
5060;SDS011;2549;52.128;21.068;2023-03-19T07:04:27;17.88;;;10.07;;
5060;SDS011;2549;52.128;21.068;2023-03-19T07:06:55;23.05;;;10.10;;
5060;SDS011;2549;52.128;21.068;2023-03-19T07:09:21;18.13;;;9.25;;
5060;SDS011;2549;52.128;21.068;2023-03-19T07:11:48;22.23;;;10.60;;
5060;SDS011;2549;52.128;21.068;2023-03-19T07:14:15;17.65;;;9.30;;
5060;SDS011;2549;52.128;21.068;2023-03-19T07:16:42;18.80;;;9.00;;
5060;SDS011;2549;52.128;21.068;2023-03-19T07:19:09;19.67;;;9.73;;
5060;SDS011;2549;52.128;21.068;2023-03-19T07:21:36;19.42;;;9.30;;
5060;SDS011;2549;52.128;21.068;2023-03-19T07:24:03;15.60;;;8.68;;
5060;SDS011;2549;52.128;21.068;2023-03-19T07:26:30;21.80;;;9.38;;
5060;SDS011;2549;52.128;21.068;2023-03-19T07:28:57;14.32;;;9.00;;
5060;SDS011;2549;52.128;21.068;2023-03-19T07:31:24;22.05;;;9.65;;
5060;SDS011;2549;52.128;21.068;2023-03-19T07:33:51;21.83;;;10.25;;
5060;SDS011;2549;52.128;21.068;2023-03-19T07:36:18;23.10;;;9.15;;
5060;SDS011;2549;52.128;21.068;2023-03-19T07:38:47;19.90;;;9.73;;
5060;SDS011;2549;52.128;21.068;2023-03-19T07:41:13;23.40;;;10.18;;
5060;SDS011;2549;52.128;21.068;2023-03-19T07:43:40;21.52;;;9.38;;
5060;SDS011;2549;52.128;21.068;2023-03-19T07:46:07;19.65;;;8.82;;
5060;SDS011;2549;52.128;21.068;2023-03-19T07:48:34;20.42;;;8.95;;
5060;SDS011;2549;52.128;21.068;2023-03-19T07:51:01;16.77;;;8.70;;
5060;SDS011;2549;52.128;21.068;2023-03-19T07:53:28;15.75;;;8.25;;
5060;SDS011;2549;52.128;21.068;2023-03-19T07:55:55;22.92;;;8.60;;
5060;SDS011;2549;52.128;21.068;2023-03-19T07:58:22;20.90;;;9.05;;
5060;SDS011;2549;52.128;21.068;2023-03-19T08:00:49;17.33;;;9.07;;
5060;SDS011;2549;52.128;21.068;2023-03-19T08:03:16;16.65;;;8.70;;
5060;SDS011;2549;52.128;21.068;2023-03-19T08:05:42;20.48;;;9.13;;
5060;SDS011;2549;52.128;21.068;2023-03-19T08:08:09;20.08;;;9.75;;
5060;SDS011;2549;52.128;21.068;2023-03-19T08:10:36;20.47;;;8.93;;
5060;SDS011;2549;52.128;21.068;2023-03-19T08:13:04;17.30;;;8.23;;
5060;SDS011;2549;52.128;21.068;2023-03-19T08:15:32;22.25;;;8.82;;
5060;SDS011;2549;52.128;21.068;2023-03-19T08:17:59;12.43;;;7.72;;
5060;SDS011;2549;52.128;21.068;2023-03-19T08:20:28;13.57;;;8.20;;
5060;SDS011;2549;52.128;21.068;2023-03-19T08:22:56;17.73;;;9.57;;
5060;SDS011;2549;52.128;21.068;2023-03-19T08:25:23;20.27;;;9.10;;
5060;SDS011;2549;52.128;21.068;2023-03-19T08:27:51;20.02;;;8.77;;
5060;SDS011;2549;52.128;21.068;2023-03-19T08:30:17;15.25;;;9.25;;
5060;SDS011;2549;52.128;21.068;2023-03-19T08:32:44;18.30;;;9.10;;
5060;SDS011;2549;52.128;21.068;2023-03-19T08:35:11;15.70;;;8.85;;
5060;SDS011;2549;52.128;21.068;2023-03-19T08:37:39;17.25;;;8.35;;
5060;SDS011;2549;52.128;21.068;2023-03-19T08:40:06;18.07;;;9.53;;
5060;SDS011;2549;52.128;21.068;2023-03-19T08:42:33;16.50;;;8.23;;
5060;SDS011;2549;52.128;21.068;2023-03-19T08:45:00;15.17;;;8.50;;
5060;SDS011;2549;52.128;21.068;2023-03-19T08:47:27;17.88;;;8.80;;
5060;SDS011;2549;52.128;21.068;2023-03-19T08:49:54;17.33;;;9.20;;
5060;SDS011;2549;52.128;21.068;2023-03-19T08:52:21;18.73;;;8.33;;
5060;SDS011;2549;52.128;21.068;2023-03-19T08:54:49;16.83;;;8.60;;
5060;SDS011;2549;52.128;21.068;2023-03-19T08:57:16;15.75;;;9.05;;
5060;SDS011;2549;52.128;21.068;2023-03-19T08:59:42;17.20;;;8.63;;
5060;SDS011;2549;52.128;21.068;2023-03-19T09:02:10;22.50;;;8.37;;
5060;SDS011;2549;52.128;21.068;2023-03-19T09:04:40;14.63;;;8.40;;
5060;SDS011;2549;52.128;21.068;2023-03-19T09:07:08;16.48;;;7.45;;
5060;SDS011;2549;52.128;21.068;2023-03-19T09:09:41;14.17;;;7.10;;
5060;SDS011;2549;52.128;21.068;2023-03-19T09:12:09;20.10;;;8.97;;
5060;SDS011;2549;52.128;21.068;2023-03-19T09:14:38;17.60;;;7.33;;
5060;SDS011;2549;52.128;21.068;2023-03-19T09:17:05;13.37;;;7.30;;
5060;SDS011;2549;52.128;21.068;2023-03-19T09:19:33;10.53;;;6.90;;
5060;SDS011;2549;52.128;21.068;2023-03-19T09:22:00;12.13;;;6.70;;
5060;SDS011;2549;52.128;21.068;2023-03-19T09:24:27;12.43;;;6.10;;
5060;SDS011;2549;52.128;21.068;2023-03-19T09:26:54;10.60;;;6.10;;
5060;SDS011;2549;52.128;21.068;2023-03-19T09:29:21;13.27;;;6.17;;
5060;SDS011;2549;52.128;21.068;2023-03-19T09:31:48;8.60;;;5.90;;
5060;SDS011;2549;52.128;21.068;2023-03-19T09:34:14;7.80;;;5.57;;
5060;SDS011;2549;52.128;21.068;2023-03-19T09:36:41;8.93;;;6.47;;
5060;SDS011;2549;52.128;21.068;2023-03-19T09:39:08;9.80;;;5.60;;
5060;SDS011;2549;52.128;21.068;2023-03-19T09:41:48;9.90;;;6.03;;
5060;SDS011;2549;52.128;21.068;2023-03-19T09:44:37;8.67;;;5.50;;
5060;SDS011;2549;52.128;21.068;2023-03-19T09:49:57;9.03;;;5.23;;
5060;SDS011;2549;52.128;21.068;2023-03-19T09:57:49;9.00;;;5.77;;
5060;SDS011;2549;52.128;21.068;2023-03-19T10:00:22;11.00;;;5.83;;
5060;SDS011;2549;52.128;21.068;2023-03-19T10:08:39;6.73;;;5.00;;
5060;SDS011;2549;52.128;21.068;2023-03-19T10:13:58;12.00;;;5.97;;
5060;SDS011;2549;52.128;21.068;2023-03-19T10:16:40;7.70;;;4.83;;
5060;SDS011;2549;52.128;21.068;2023-03-19T10:19:12;7.17;;;4.63;;
5060;SDS011;2549;52.128;21.068;2023-03-19T10:21:49;8.30;;;5.23;;
5060;SDS011;2549;52.128;21.068;2023-03-19T10:24:29;8.10;;;5.10;;
5060;SDS011;2549;52.128;21.068;2023-03-19T10:27:00;8.40;;;5.83;;
5060;SDS011;2549;52.128;21.068;2023-03-19T10:29:30;10.60;;;5.60;;
5060;SDS011;2549;52.128;21.068;2023-03-19T10:32:11;7.40;;;5.40;;
5060;SDS011;2549;52.128;21.068;2023-03-19T10:37:20;8.90;;;5.40;;
5060;SDS011;2549;52.128;21.068;2023-03-19T10:39:54;9.77;;;6.17;;
5060;SDS011;2549;52.128;21.068;2023-03-19T10:45:30;8.23;;;5.33;;
5060;SDS011;2549;52.128;21.068;2023-03-19T10:48:00;11.50;;;5.83;;
5060;SDS011;2549;52.128;21.068;2023-03-19T10:50:30;7.00;;;4.77;;
5060;SDS011;2549;52.128;21.068;2023-03-19T10:58:21;9.43;;;5.83;;
5060;SDS011;2549;52.128;21.068;2023-03-19T11:00:57;7.30;;;5.47;;
5060;SDS011;2549;52.128;21.068;2023-03-19T11:03:30;9.60;;;5.50;;
5060;SDS011;2549;52.128;21.068;2023-03-19T11:08:56;9.93;;;6.30;;
5060;SDS011;2549;52.128;21.068;2023-03-19T11:11:31;11.17;;;6.10;;
5060;SDS011;2549;52.128;21.068;2023-03-19T11:14:04;8.63;;;5.70;;
5060;SDS011;2549;52.128;21.068;2023-03-19T11:19:32;12.03;;;6.13;;
5060;SDS011;2549;52.128;21.068;2023-03-19T11:24:38;9.30;;;5.87;;
5060;SDS011;2549;52.128;21.068;2023-03-19T11:27:06;8.17;;;5.60;;
5060;SDS011;2549;52.128;21.068;2023-03-19T11:29:41;11.67;;;6.30;;
5060;SDS011;2549;52.128;21.068;2023-03-19T11:35:00;10.53;;;5.70;;
5060;SDS011;2549;52.128;21.068;2023-03-19T11:37:55;8.50;;;5.37;;
5060;SDS011;2549;52.128;21.068;2023-03-19T11:48:45;8.53;;;5.27;;
5060;SDS011;2549;52.128;21.068;2023-03-19T11:51:38;12.53;;;6.53;;
5060;SDS011;2549;52.128;21.068;2023-03-19T11:56:49;7.63;;;5.40;;
5060;SDS011;2549;52.128;21.068;2023-03-19T11:59:42;9.70;;;5.87;;
5060;SDS011;2549;52.128;21.068;2023-03-19T12:19:16;9.50;;;6.00;;
5060;SDS011;2549;52.128;21.068;2023-03-19T12:35:54;11.83;;;5.60;;
5060;SDS011;2549;52.128;21.068;2023-03-19T12:41:02;10.10;;;5.70;;
5060;SDS011;2549;52.128;21.068;2023-03-19T12:43:45;10.17;;;5.50;;
5060;SDS011;2549;52.128;21.068;2023-03-19T12:49:20;8.57;;;5.37;;
5060;SDS011;2549;52.128;21.068;2023-03-19T12:52:02;8.33;;;4.90;;
5060;SDS011;2549;52.128;21.068;2023-03-19T12:54:54;6.67;;;5.60;;
5060;SDS011;2549;52.128;21.068;2023-03-19T13:03:13;8.93;;;4.93;;
5060;SDS011;2549;52.128;21.068;2023-03-19T13:17:24;7.53;;;4.53;;
5060;SDS011;2549;52.128;21.068;2023-03-19T13:20:16;8.70;;;5.30;;
5060;SDS011;2549;52.128;21.068;2023-03-19T13:22:47;8.70;;;5.87;;
5060;SDS011;2549;52.128;21.068;2023-03-19T13:25:23;7.13;;;5.20;;
5060;SDS011;2549;52.128;21.068;2023-03-19T13:27:57;6.80;;;5.27;;
5060;SDS011;2549;52.128;21.068;2023-03-19T13:30:24;7.80;;;4.87;;
5060;SDS011;2549;52.128;21.068;2023-03-19T13:33:20;7.63;;;5.00;;
5060;SDS011;2549;52.128;21.068;2023-03-19T13:35:48;7.97;;;4.77;;
5060;SDS011;2549;52.128;21.068;2023-03-19T13:40:54;6.57;;;4.47;;
5060;SDS011;2549;52.128;21.068;2023-03-19T13:59:33;9.70;;;5.57;;
5060;SDS011;2549;52.128;21.068;2023-03-19T14:04:50;8.93;;;5.00;;
5060;SDS011;2549;52.128;21.068;2023-03-19T14:07:33;7.37;;;4.70;;
5060;SDS011;2549;52.128;21.068;2023-03-19T14:12:35;8.90;;;4.60;;
5060;SDS011;2549;52.128;21.068;2023-03-19T14:17:38;4.67;;;4.10;;
5060;SDS011;2549;52.128;21.068;2023-03-19T14:34:15;7.67;;;4.80;;
5060;SDS011;2549;52.128;21.068;2023-03-19T14:39:30;11.57;;;5.40;;
5060;SDS011;2549;52.128;21.068;2023-03-19T14:55:31;9.33;;;4.87;;
5060;SDS011;2549;52.128;21.068;2023-03-19T14:58:03;5.47;;;3.90;;
5060;SDS011;2549;52.128;21.068;2023-03-19T15:00:47;6.57;;;4.67;;
5060;SDS011;2549;52.128;21.068;2023-03-19T15:03:21;6.67;;;4.37;;
5060;SDS011;2549;52.128;21.068;2023-03-19T15:05:59;5.37;;;4.00;;
5060;SDS011;2549;52.128;21.068;2023-03-19T15:08:28;6.73;;;4.57;;
5060;SDS011;2549;52.128;21.068;2023-03-19T15:19:15;6.57;;;4.93;;
5060;SDS011;2549;52.128;21.068;2023-03-19T15:21:49;10.73;;;5.40;;
5060;SDS011;2549;52.128;21.068;2023-03-19T15:24:16;4.83;;;3.77;;
5060;SDS011;2549;52.128;21.068;2023-03-19T15:26:43;6.10;;;3.90;;
5060;SDS011;2549;52.128;21.068;2023-03-19T15:29:11;7.23;;;4.00;;
5060;SDS011;2549;52.128;21.068;2023-03-19T15:31:39;6.20;;;3.93;;
5060;SDS011;2549;52.128;21.068;2023-03-19T15:34:27;10.17;;;4.70;;
5060;SDS011;2549;52.128;21.068;2023-03-19T15:37:08;8.73;;;3.77;;
5060;SDS011;2549;52.128;21.068;2023-03-19T15:39:48;6.70;;;4.00;;
5060;SDS011;2549;52.128;21.068;2023-03-19T15:42:17;5.70;;;4.47;;
5060;SDS011;2549;52.128;21.068;2023-03-19T15:44:51;6.67;;;4.03;;
5060;SDS011;2549;52.128;21.068;2023-03-19T15:47:23;5.50;;;3.90;;
5060;SDS011;2549;52.128;21.068;2023-03-19T15:49:58;6.57;;;3.80;;
5060;SDS011;2549;52.128;21.068;2023-03-19T15:52:30;8.70;;;4.30;;
5060;SDS011;2549;52.128;21.068;2023-03-19T15:54:59;7.30;;;4.03;;
5060;SDS011;2549;52.128;21.068;2023-03-19T15:57:27;3.60;;;3.30;;
5060;SDS011;2549;52.128;21.068;2023-03-19T15:59:54;7.73;;;4.33;;
5060;SDS011;2549;52.128;21.068;2023-03-19T16:04:54;9.10;;;5.00;;
5060;SDS011;2549;52.128;21.068;2023-03-19T16:07:42;5.40;;;3.60;;
5060;SDS011;2549;52.128;21.068;2023-03-19T16:10:29;8.10;;;4.27;;
5060;SDS011;2549;52.128;21.068;2023-03-19T16:12:58;5.70;;;3.90;;
5060;SDS011;2549;52.128;21.068;2023-03-19T16:15:43;5.90;;;4.60;;
5060;SDS011;2549;52.128;21.068;2023-03-19T16:20:42;7.83;;;3.90;;
5060;SDS011;2549;52.128;21.068;2023-03-19T16:23:13;4.80;;;3.93;;
5060;SDS011;2549;52.128;21.068;2023-03-19T16:25:43;6.87;;;3.77;;
5060;SDS011;2549;52.128;21.068;2023-03-19T16:28:15;6.70;;;3.43;;
5060;SDS011;2549;52.128;21.068;2023-03-19T16:30:47;5.30;;;3.60;;
5060;SDS011;2549;52.128;21.068;2023-03-19T16:33:15;8.37;;;3.73;;
5060;SDS011;2549;52.128;21.068;2023-03-19T16:35:43;4.43;;;3.10;;
5060;SDS011;2549;52.128;21.068;2023-03-19T16:38:17;5.63;;;4.00;;
5060;SDS011;2549;52.128;21.068;2023-03-19T16:40:49;6.10;;;3.33;;
5060;SDS011;2549;52.128;21.068;2023-03-19T16:43:50;4.40;;;3.03;;
5060;SDS011;2549;52.128;21.068;2023-03-19T16:46:18;13.50;;;3.47;;
5060;SDS011;2549;52.128;21.068;2023-03-19T16:48:45;6.40;;;3.07;;
5060;SDS011;2549;52.128;21.068;2023-03-19T16:51:15;7.50;;;3.70;;
5060;SDS011;2549;52.128;21.068;2023-03-19T16:53:45;4.90;;;3.13;;
5060;SDS011;2549;52.128;21.068;2023-03-19T16:56:13;8.70;;;4.23;;
5060;SDS011;2549;52.128;21.068;2023-03-19T16:58:41;6.83;;;3.80;;
5060;SDS011;2549;52.128;21.068;2023-03-19T17:01:13;5.50;;;3.33;;
5060;SDS011;2549;52.128;21.068;2023-03-19T17:03:50;5.17;;;3.80;;
5060;SDS011;2549;52.128;21.068;2023-03-19T17:06:18;6.17;;;4.17;;
5060;SDS011;2549;52.128;21.068;2023-03-19T17:08:46;6.20;;;3.47;;
5060;SDS011;2549;52.128;21.068;2023-03-19T17:11:21;4.43;;;3.97;;
5060;SDS011;2549;52.128;21.068;2023-03-19T17:13:54;7.30;;;4.30;;
5060;SDS011;2549;52.128;21.068;2023-03-19T17:16:24;12.73;;;4.90;;
5060;SDS011;2549;52.128;21.068;2023-03-19T17:18:53;6.50;;;4.37;;
5060;SDS011;2549;52.128;21.068;2023-03-19T17:21:22;12.10;;;4.00;;
5060;SDS011;2549;52.128;21.068;2023-03-19T17:23:52;5.47;;;3.97;;
5060;SDS011;2549;52.128;21.068;2023-03-19T17:26:21;8.07;;;3.50;;
5060;SDS011;2549;52.128;21.068;2023-03-19T17:28:51;10.50;;;4.70;;
5060;SDS011;2549;52.128;21.068;2023-03-19T17:31:20;7.30;;;3.50;;
5060;SDS011;2549;52.128;21.068;2023-03-19T17:33:56;6.30;;;3.33;;
5060;SDS011;2549;52.128;21.068;2023-03-19T17:36:46;4.67;;;3.67;;
5060;SDS011;2549;52.128;21.068;2023-03-19T17:39:18;8.03;;;4.00;;
5060;SDS011;2549;52.128;21.068;2023-03-19T17:41:45;5.10;;;3.40;;
5060;SDS011;2549;52.128;21.068;2023-03-19T17:44:11;11.50;;;4.37;;
5060;SDS011;2549;52.128;21.068;2023-03-19T17:46:40;6.17;;;4.23;;
5060;SDS011;2549;52.128;21.068;2023-03-19T17:49:11;14.97;;;4.03;;
5060;SDS011;2549;52.128;21.068;2023-03-19T17:51:46;6.07;;;4.30;;
5060;SDS011;2549;52.128;21.068;2023-03-19T17:54:13;7.03;;;3.57;;
5060;SDS011;2549;52.128;21.068;2023-03-19T17:56:40;4.40;;;3.80;;